sensor_id;sensor_type;location;lat;lon;timestamp;temperature;humidity
20091;DHT22;10205;49.678;6.560;2023-10-31T00:02:18;16.90;78.70
20091;DHT22;10205;49.678;6.560;2023-10-31T00:04:45;16.90;79.60
20091;DHT22;10205;49.678;6.560;2023-10-31T00:07:12;16.80;78.80
20091;DHT22;10205;49.678;6.560;2023-10-31T00:09:40;16.80;78.90
20091;DHT22;10205;49.678;6.560;2023-10-31T00:12:07;16.80;79.00
20091;DHT22;10205;49.678;6.560;2023-10-31T00:14:39;16.80;78.90
20091;DHT22;10205;49.678;6.560;2023-10-31T00:17:06;16.80;78.90
20091;DHT22;10205;49.678;6.560;2023-10-31T00:19:34;16.80;78.90
20091;DHT22;10205;49.678;6.560;2023-10-31T00:22:02;16.80;79.00
20091;DHT22;10205;49.678;6.560;2023-10-31T00:24:29;16.70;78.90
20091;DHT22;10205;49.678;6.560;2023-10-31T00:26:57;16.80;78.80
20091;DHT22;10205;49.678;6.560;2023-10-31T00:29:24;16.80;79.00
20091;DHT22;10205;49.678;6.560;2023-10-31T00:31:51;16.70;78.90
20091;DHT22;10205;49.678;6.560;2023-10-31T00:34:19;16.70;78.80
20091;DHT22;10205;49.678;6.560;2023-10-31T00:36:48;16.70;78.80
20091;DHT22;10205;49.678;6.560;2023-10-31T00:39:16;16.70;78.80
20091;DHT22;10205;49.678;6.560;2023-10-31T00:41:44;16.70;78.70
20091;DHT22;10205;49.678;6.560;2023-10-31T00:44:12;16.70;78.70
20091;DHT22;10205;49.678;6.560;2023-10-31T00:46:39;16.60;78.70
20091;DHT22;10205;49.678;6.560;2023-10-31T00:49:06;16.60;78.70
20091;DHT22;10205;49.678;6.560;2023-10-31T00:51:33;16.60;78.80
20091;DHT22;10205;49.678;6.560;2023-10-31T00:54:02;16.60;78.80
20091;DHT22;10205;49.678;6.560;2023-10-31T00:56:29;16.60;78.70
20091;DHT22;10205;49.678;6.560;2023-10-31T00:58:56;16.60;78.80
20091;DHT22;10205;49.678;6.560;2023-10-31T01:01:23;16.50;78.80
20091;DHT22;10205;49.678;6.560;2023-10-31T01:03:50;16.50;78.90
20091;DHT22;10205;49.678;6.560;2023-10-31T01:06:17;16.50;78.80
20091;DHT22;10205;49.678;6.560;2023-10-31T01:08:46;16.50;78.90
20091;DHT22;10205;49.678;6.560;2023-10-31T01:11:15;16.50;79.00
20091;DHT22;10205;49.678;6.560;2023-10-31T01:13:42;16.50;79.10
20091;DHT22;10205;49.678;6.560;2023-10-31T01:16:09;16.50;79.10
20091;DHT22;10205;49.678;6.560;2023-10-31T01:18:36;16.40;79.10
20091;DHT22;10205;49.678;6.560;2023-10-31T01:21:03;16.40;79.10
20091;DHT22;10205;49.678;6.560;2023-10-31T01:23:30;16.40;79.10
20091;DHT22;10205;49.678;6.560;2023-10-31T01:25:58;16.40;79.10
20091;DHT22;10205;49.678;6.560;2023-10-31T01:28:26;16.40;79.10
20091;DHT22;10205;49.678;6.560;2023-10-31T01:30:53;16.40;79.10
20091;DHT22;10205;49.678;6.560;2023-10-31T01:33:20;16.40;79.10
20091;DHT22;10205;49.678;6.560;2023-10-31T01:35:47;16.40;79.10
20091;DHT22;10205;49.678;6.560;2023-10-31T01:38:14;16.40;79.10
20091;DHT22;10205;49.678;6.560;2023-10-31T01:40:41;16.40;79.10
20091;DHT22;10205;49.678;6.560;2023-10-31T01:43:08;16.40;79.10
20091;DHT22;10205;49.678;6.560;2023-10-31T01:45:37;16.30;79.00
20091;DHT22;10205;49.678;6.560;2023-10-31T01:48:04;16.30;79.00
20091;DHT22;10205;49.678;6.560;2023-10-31T01:50:31;16.30;78.90
20091;DHT22;10205;49.678;6.560;2023-10-31T01:52:59;16.30;79.00
20091;DHT22;10205;49.678;6.560;2023-10-31T01:55:26;16.30;79.00
20091;DHT22;10205;49.678;6.560;2023-10-31T01:57:55;16.20;79.00
20091;DHT22;10205;49.678;6.560;2023-10-31T02:00:22;16.20;79.00
20091;DHT22;10205;49.678;6.560;2023-10-31T02:02:52;16.20;79.10
20091;DHT22;10205;49.678;6.560;2023-10-31T02:05:20;16.20;79.00
20091;DHT22;10205;49.678;6.560;2023-10-31T02:07:47;16.20;79.00
20091;DHT22;10205;49.678;6.560;2023-10-31T02:10:15;16.20;79.10
20091;DHT22;10205;49.678;6.560;2023-10-31T02:12:42;16.10;79.10
20091;DHT22;10205;49.678;6.560;2023-10-31T02:15:09;16.10;79.00
20091;DHT22;10205;49.678;6.560;2023-10-31T02:17:37;16.10;79.00
20091;DHT22;10205;49.678;6.560;2023-10-31T02:20:07;16.10;80.00
20091;DHT22;10205;49.678;6.560;2023-10-31T02:22:36;16.10;79.20
20091;DHT22;10205;49.678;6.560;2023-10-31T02:25:23;16.10;79.30
20091;DHT22;10205;49.678;6.560;2023-10-31T02:27:51;16.10;79.40
20091;DHT22;10205;49.678;6.560;2023-10-31T02:30:18;16.00;79.20
20091;DHT22;10205;49.678;6.560;2023-10-31T02:32:46;16.10;79.20
20091;DHT22;10205;49.678;6.560;2023-10-31T02:35:16;16.10;79.30
20091;DHT22;10205;49.678;6.560;2023-10-31T02:37:46;16.00;79.20
20091;DHT22;10205;49.678;6.560;2023-10-31T02:40:13;16.00;79.20
20091;DHT22;10205;49.678;6.560;2023-10-31T02:42:41;16.00;79.20
20091;DHT22;10205;49.678;6.560;2023-10-31T02:45:08;16.00;79.20
20091;DHT22;10205;49.678;6.560;2023-10-31T02:47:35;16.00;79.20
20091;DHT22;10205;49.678;6.560;2023-10-31T02:50:03;16.00;79.20
20091;DHT22;10205;49.678;6.560;2023-10-31T02:52:31;15.90;79.00
20091;DHT22;10205;49.678;6.560;2023-10-31T02:55:00;15.90;79.10
20091;DHT22;10205;49.678;6.560;2023-10-31T02:57:27;15.90;79.20
20091;DHT22;10205;49.678;6.560;2023-10-31T02:59:54;15.90;79.20
20091;DHT22;10205;49.678;6.560;2023-10-31T03:02:21;15.90;79.90
20091;DHT22;10205;49.678;6.560;2023-10-31T03:04:49;15.90;79.10
20091;DHT22;10205;49.678;6.560;2023-10-31T03:07:17;15.90;79.10
20091;DHT22;10205;49.678;6.560;2023-10-31T03:09:44;15.90;79.20
20091;DHT22;10205;49.678;6.560;2023-10-31T03:12:13;15.90;79.20
20091;DHT22;10205;49.678;6.560;2023-10-31T03:14:41;15.90;79.10
20091;DHT22;10205;49.678;6.560;2023-10-31T03:17:09;15.90;79.10
20091;DHT22;10205;49.678;6.560;2023-10-31T03:19:37;15.80;79.00
20091;DHT22;10205;49.678;6.560;2023-10-31T03:22:04;15.80;79.10
20091;DHT22;10205;49.678;6.560;2023-10-31T03:24:31;15.80;79.00
20091;DHT22;10205;49.678;6.560;2023-10-31T03:26:58;15.80;79.00
20091;DHT22;10205;49.678;6.560;2023-10-31T03:29:27;15.80;79.00
20091;DHT22;10205;49.678;6.560;2023-10-31T03:31:54;15.80;79.10
20091;DHT22;10205;49.678;6.560;2023-10-31T03:34:21;15.80;79.20
20091;DHT22;10205;49.678;6.560;2023-10-31T03:36:49;15.80;79.20
20091;DHT22;10205;49.678;6.560;2023-10-31T03:39:16;15.80;79.00
20091;DHT22;10205;49.678;6.560;2023-10-31T03:41:44;15.80;79.00
20091;DHT22;10205;49.678;6.560;2023-10-31T03:44:12;15.70;79.10
20091;DHT22;10205;49.678;6.560;2023-10-31T03:46:40;15.80;79.20
20091;DHT22;10205;49.678;6.560;2023-10-31T03:49:07;15.70;79.10
20091;DHT22;10205;49.678;6.560;2023-10-31T03:51:33;15.70;79.00
20091;DHT22;10205;49.678;6.560;2023-10-31T03:54:01;15.70;78.90
20091;DHT22;10205;49.678;6.560;2023-10-31T03:56:28;15.70;78.80
20091;DHT22;10205;49.678;6.560;2023-10-31T03:58:55;15.70;78.90
20091;DHT22;10205;49.678;6.560;2023-10-31T04:01:22;15.70;79.00
20091;DHT22;10205;49.678;6.560;2023-10-31T04:03:51;15.70;79.10
20091;DHT22;10205;49.678;6.560;2023-10-31T04:06:18;15.70;79.10
20091;DHT22;10205;49.678;6.560;2023-10-31T04:08:45;15.70;79.10
20091;DHT22;10205;49.678;6.560;2023-10-31T04:11:12;15.60;79.10
20091;DHT22;10205;49.678;6.560;2023-10-31T04:13:39;15.70;79.10
20091;DHT22;10205;49.678;6.560;2023-10-31T04:16:08;15.60;79.10
20091;DHT22;10205;49.678;6.560;2023-10-31T04:18:36;15.60;79.20
20091;DHT22;10205;49.678;6.560;2023-10-31T04:21:05;15.60;79.20
20091;DHT22;10205;49.678;6.560;2023-10-31T04:23:32;15.60;79.20
20091;DHT22;10205;49.678;6.560;2023-10-31T04:25:59;15.60;79.10
20091;DHT22;10205;49.678;6.560;2023-10-31T04:28:27;15.60;79.10
20091;DHT22;10205;49.678;6.560;2023-10-31T04:30:54;15.60;79.20
20091;DHT22;10205;49.678;6.560;2023-10-31T04:33:21;15.60;79.20
20091;DHT22;10205;49.678;6.560;2023-10-31T04:35:48;15.60;79.10
20091;DHT22;10205;49.678;6.560;2023-10-31T04:38:16;15.60;79.10
20091;DHT22;10205;49.678;6.560;2023-10-31T04:40:43;15.60;79.00
20091;DHT22;10205;49.678;6.560;2023-10-31T04:43:11;15.60;79.00
20091;DHT22;10205;49.678;6.560;2023-10-31T04:45:38;15.60;79.10
20091;DHT22;10205;49.678;6.560;2023-10-31T04:48:05;15.60;79.10
20091;DHT22;10205;49.678;6.560;2023-10-31T04:50:32;15.60;79.20
20091;DHT22;10205;49.678;6.560;2023-10-31T04:52:59;15.60;79.10
20091;DHT22;10205;49.678;6.560;2023-10-31T04:55:28;15.60;79.10
20091;DHT22;10205;49.678;6.560;2023-10-31T04:57:55;15.60;79.10
20091;DHT22;10205;49.678;6.560;2023-10-31T05:00:22;15.60;79.10
20091;DHT22;10205;49.678;6.560;2023-10-31T05:02:50;15.60;79.10
20091;DHT22;10205;49.678;6.560;2023-10-31T05:05:17;15.60;79.00
20091;DHT22;10205;49.678;6.560;2023-10-31T05:07:45;15.60;78.90
20091;DHT22;10205;49.678;6.560;2023-10-31T05:10:12;15.50;78.80
20091;DHT22;10205;49.678;6.560;2023-10-31T05:12:40;15.60;79.00
20091;DHT22;10205;49.678;6.560;2023-10-31T05:15:08;15.50;79.00
20091;DHT22;10205;49.678;6.560;2023-10-31T05:17:36;15.50;78.90
20091;DHT22;10205;49.678;6.560;2023-10-31T05:20:04;15.50;78.90
20091;DHT22;10205;49.678;6.560;2023-10-31T05:22:31;15.50;79.00
20091;DHT22;10205;49.678;6.560;2023-10-31T05:24:58;15.50;78.90
20091;DHT22;10205;49.678;6.560;2023-10-31T05:27:25;15.50;78.80
20091;DHT22;10205;49.678;6.560;2023-10-31T05:29:54;15.50;78.90
20091;DHT22;10205;49.678;6.560;2023-10-31T05:32:21;15.50;78.90
20091;DHT22;10205;49.678;6.560;2023-10-31T05:34:48;15.50;79.00
20091;DHT22;10205;49.678;6.560;2023-10-31T05:37:15;15.40;79.00
20091;DHT22;10205;49.678;6.560;2023-10-31T05:39:42;15.40;78.90
20091;DHT22;10205;49.678;6.560;2023-10-31T05:42:10;15.40;78.90
20091;DHT22;10205;49.678;6.560;2023-10-31T05:44:37;15.40;78.90
20091;DHT22;10205;49.678;6.560;2023-10-31T05:47:06;15.40;78.80
20091;DHT22;10205;49.678;6.560;2023-10-31T05:49:33;15.40;78.90
20091;DHT22;10205;49.678;6.560;2023-10-31T05:52:00;15.40;79.00
20091;DHT22;10205;49.678;6.560;2023-10-31T05:54:27;15.40;79.00
20091;DHT22;10205;49.678;6.560;2023-10-31T05:56:55;15.40;79.20
20091;DHT22;10205;49.678;6.560;2023-10-31T05:59:22;15.40;79.20
20091;DHT22;10205;49.678;6.560;2023-10-31T06:01:49;15.40;79.00
20091;DHT22;10205;49.678;6.560;2023-10-31T06:04:17;15.40;79.00
20091;DHT22;10205;49.678;6.560;2023-10-31T06:06:44;15.40;79.00
20091;DHT22;10205;49.678;6.560;2023-10-31T06:09:12;15.30;78.90
20091;DHT22;10205;49.678;6.560;2023-10-31T06:11:40;15.30;79.00
20091;DHT22;10205;49.678;6.560;2023-10-31T06:14:09;15.30;79.00
20091;DHT22;10205;49.678;6.560;2023-10-31T06:16:40;15.30;78.90
20091;DHT22;10205;49.678;6.560;2023-10-31T06:19:08;15.30;78.70
20091;DHT22;10205;49.678;6.560;2023-10-31T06:21:37;15.30;78.60
20091;DHT22;10205;49.678;6.560;2023-10-31T06:24:04;15.30;78.70
20091;DHT22;10205;49.678;6.560;2023-10-31T06:26:32;15.30;78.80
20091;DHT22;10205;49.678;6.560;2023-10-31T06:28:59;15.30;78.90
20091;DHT22;10205;49.678;6.560;2023-10-31T06:31:26;15.30;78.80
20091;DHT22;10205;49.678;6.560;2023-10-31T06:33:53;15.30;78.80
20091;DHT22;10205;49.678;6.560;2023-10-31T06:36:20;15.30;78.90
20091;DHT22;10205;49.678;6.560;2023-10-31T06:38:48;15.30;78.90
20091;DHT22;10205;49.678;6.560;2023-10-31T06:41:16;15.30;79.00
20091;DHT22;10205;49.678;6.560;2023-10-31T06:43:43;15.30;79.00
20091;DHT22;10205;49.678;6.560;2023-10-31T06:46:10;15.30;79.00
20091;DHT22;10205;49.678;6.560;2023-10-31T06:48:37;15.20;78.90
20091;DHT22;10205;49.678;6.560;2023-10-31T06:51:04;15.30;78.60
20091;DHT22;10205;49.678;6.560;2023-10-31T06:53:31;15.20;78.10
20091;DHT22;10205;49.678;6.560;2023-10-31T06:56:00;15.20;78.90
20091;DHT22;10205;49.678;6.560;2023-10-31T06:58:27;15.20;78.10
20091;DHT22;10205;49.678;6.560;2023-10-31T07:00:54;15.20;78.20
20091;DHT22;10205;49.678;6.560;2023-10-31T07:03:23;15.10;78.20
20091;DHT22;10205;49.678;6.560;2023-10-31T07:05:51;15.10;78.30
20091;DHT22;10205;49.678;6.560;2023-10-31T07:08:18;15.10;78.20
20091;DHT22;10205;49.678;6.560;2023-10-31T07:10:45;15.10;78.10
20091;DHT22;10205;49.678;6.560;2023-10-31T07:13:13;15.10;78.10
20091;DHT22;10205;49.678;6.560;2023-10-31T07:15:42;15.10;78.20
20091;DHT22;10205;49.678;6.560;2023-10-31T07:18:09;15.10;78.20
20091;DHT22;10205;49.678;6.560;2023-10-31T07:20:36;15.10;78.10
20091;DHT22;10205;49.678;6.560;2023-10-31T07:23:03;15.00;78.10
20091;DHT22;10205;49.678;6.560;2023-10-31T07:25:30;15.00;78.20
20091;DHT22;10205;49.678;6.560;2023-10-31T07:27:57;15.00;78.20
20091;DHT22;10205;49.678;6.560;2023-10-31T07:30:26;15.00;78.20
20091;DHT22;10205;49.678;6.560;2023-10-31T07:32:53;15.00;79.10
20091;DHT22;10205;49.678;6.560;2023-10-31T07:35:20;15.00;78.40
20091;DHT22;10205;49.678;6.560;2023-10-31T07:37:47;15.00;78.40
20091;DHT22;10205;49.678;6.560;2023-10-31T07:40:15;15.00;78.50
20091;DHT22;10205;49.678;6.560;2023-10-31T07:42:42;15.00;78.40
20091;DHT22;10205;49.678;6.560;2023-10-31T07:45:09;15.00;78.50
20091;DHT22;10205;49.678;6.560;2023-10-31T07:47:38;15.00;78.60
20091;DHT22;10205;49.678;6.560;2023-10-31T07:50:06;15.00;78.60
20091;DHT22;10205;49.678;6.560;2023-10-31T07:52:33;15.00;78.60
20091;DHT22;10205;49.678;6.560;2023-10-31T07:55:01;15.00;78.60
20091;DHT22;10205;49.678;6.560;2023-10-31T07:57:28;15.00;78.60
20091;DHT22;10205;49.678;6.560;2023-10-31T07:59:55;15.00;78.60
20091;DHT22;10205;49.678;6.560;2023-10-31T08:02:22;15.00;78.50
20091;DHT22;10205;49.678;6.560;2023-10-31T08:04:51;15.00;78.40
20091;DHT22;10205;49.678;6.560;2023-10-31T08:07:18;15.00;78.50
20091;DHT22;10205;49.678;6.560;2023-10-31T08:09:45;15.00;78.60
20091;DHT22;10205;49.678;6.560;2023-10-31T08:12:12;15.00;78.60
20091;DHT22;10205;49.678;6.560;2023-10-31T08:14:39;15.10;78.60
20091;DHT22;10205;49.678;6.560;2023-10-31T08:17:06;15.00;78.60
20091;DHT22;10205;49.678;6.560;2023-10-31T08:19:34;15.10;78.60
20091;DHT22;10205;49.678;6.560;2023-10-31T08:22:05;15.10;78.60
20091;DHT22;10205;49.678;6.560;2023-10-31T08:24:32;15.00;78.60
20091;DHT22;10205;49.678;6.560;2023-10-31T08:27:01;15.10;78.60
20091;DHT22;10205;49.678;6.560;2023-10-31T08:29:29;15.10;78.60
20091;DHT22;10205;49.678;6.560;2023-10-31T08:31:56;15.10;78.60
20091;DHT22;10205;49.678;6.560;2023-10-31T08:34:23;15.10;78.60
20091;DHT22;10205;49.678;6.560;2023-10-31T08:36:50;15.10;78.60
20091;DHT22;10205;49.678;6.560;2023-10-31T08:39:19;15.10;78.60
20091;DHT22;10205;49.678;6.560;2023-10-31T08:41:50;15.10;78.60
20091;DHT22;10205;49.678;6.560;2023-10-31T08:44:18;15.10;78.50
20091;DHT22;10205;49.678;6.560;2023-10-31T08:46:45;15.10;78.60
20091;DHT22;10205;49.678;6.560;2023-10-31T08:49:12;15.10;78.60
20091;DHT22;10205;49.678;6.560;2023-10-31T08:51:39;15.20;78.80
20091;DHT22;10205;49.678;6.560;2023-10-31T08:54:07;15.20;78.90
20091;DHT22;10205;49.678;6.560;2023-10-31T08:56:35;15.20;79.30
20091;DHT22;10205;49.678;6.560;2023-10-31T08:59:03;15.20;79.70
20091;DHT22;10205;49.678;6.560;2023-10-31T09:01:30;15.30;80.20
20091;DHT22;10205;49.678;6.560;2023-10-31T09:03:59;15.40;80.50
20091;DHT22;10205;49.678;6.560;2023-10-31T09:06:26;15.40;80.70
20091;DHT22;10205;49.678;6.560;2023-10-31T09:08:53;15.50;80.80
20091;DHT22;10205;49.678;6.560;2023-10-31T09:11:20;15.60;80.90
20091;DHT22;10205;49.678;6.560;2023-10-31T09:13:49;15.70;80.90
20091;DHT22;10205;49.678;6.560;2023-10-31T09:16:16;15.80;81.00
20091;DHT22;10205;49.678;6.560;2023-10-31T09:18:43;15.90;81.10
20091;DHT22;10205;49.678;6.560;2023-10-31T09:21:10;16.00;81.10
20091;DHT22;10205;49.678;6.560;2023-10-31T09:23:37;16.00;81.00
20091;DHT22;10205;49.678;6.560;2023-10-31T09:26:04;16.10;81.00
20091;DHT22;10205;49.678;6.560;2023-10-31T09:28:31;16.20;80.90
20091;DHT22;10205;49.678;6.560;2023-10-31T09:31:00;16.30;80.70
20091;DHT22;10205;49.678;6.560;2023-10-31T09:33:27;16.40;80.50
20091;DHT22;10205;49.678;6.560;2023-10-31T09:35:54;16.50;80.30
20091;DHT22;10205;49.678;6.560;2023-10-31T09:38:21;16.60;80.10
20091;DHT22;10205;49.678;6.560;2023-10-31T09:40:49;16.60;79.90
20091;DHT22;10205;49.678;6.560;2023-10-31T09:43:16;16.70;79.60
20091;DHT22;10205;49.678;6.560;2023-10-31T09:45:44;16.70;79.60
20091;DHT22;10205;49.678;6.560;2023-10-31T09:48:13;16.80;79.50
20091;DHT22;10205;49.678;6.560;2023-10-31T09:50:41;16.80;79.40
20091;DHT22;10205;49.678;6.560;2023-10-31T09:53:09;16.90;79.40
20091;DHT22;10205;49.678;6.560;2023-10-31T09:55:37;16.90;79.30
20091;DHT22;10205;49.678;6.560;2023-10-31T09:58:08;17.00;79.20
20091;DHT22;10205;49.678;6.560;2023-10-31T10:00:35;17.00;79.80
20091;DHT22;10205;49.678;6.560;2023-10-31T10:03:06;17.10;79.10
20091;DHT22;10205;49.678;6.560;2023-10-31T10:05:36;17.10;78.90
20091;DHT22;10205;49.678;6.560;2023-10-31T10:08:04;17.10;78.80
20091;DHT22;10205;49.678;6.560;2023-10-31T10:10:32;17.20;78.80
20091;DHT22;10205;49.678;6.560;2023-10-31T10:13:00;17.20;78.70
20091;DHT22;10205;49.678;6.560;2023-10-31T10:15:29;17.20;78.60
20091;DHT22;10205;49.678;6.560;2023-10-31T10:17:56;17.30;78.50
20091;DHT22;10205;49.678;6.560;2023-10-31T10:20:23;17.30;78.40
20091;DHT22;10205;49.678;6.560;2023-10-31T10:22:51;17.30;78.20
20091;DHT22;10205;49.678;6.560;2023-10-31T10:25:19;17.40;78.80
20091;DHT22;10205;49.678;6.560;2023-10-31T10:27:46;17.40;78.00
20091;DHT22;10205;49.678;6.560;2023-10-31T10:30:14;17.40;78.00
20091;DHT22;10205;49.678;6.560;2023-10-31T10:32:42;17.50;78.00
20091;DHT22;10205;49.678;6.560;2023-10-31T10:35:09;17.50;78.10
20091;DHT22;10205;49.678;6.560;2023-10-31T10:37:37;17.50;78.00
20091;DHT22;10205;49.678;6.560;2023-10-31T10:40:10;17.50;78.00
20091;DHT22;10205;49.678;6.560;2023-10-31T10:42:44;17.60;77.80
20091;DHT22;10205;49.678;6.560;2023-10-31T10:45:15;17.60;77.50
20091;DHT22;10205;49.678;6.560;2023-10-31T10:47:48;17.60;77.60
20091;DHT22;10205;49.678;6.560;2023-10-31T10:50:19;17.60;78.30
20091;DHT22;10205;49.678;6.560;2023-10-31T10:52:49;17.70;78.40
20091;DHT22;10205;49.678;6.560;2023-10-31T10:55:27;17.70;77.80
20091;DHT22;10205;49.678;6.560;2023-10-31T10:58:00;17.70;77.80
20091;DHT22;10205;49.678;6.560;2023-10-31T11:00:31;17.70;77.30
20091;DHT22;10205;49.678;6.560;2023-10-31T11:03:01;17.80;77.50
20091;DHT22;10205;49.678;6.560;2023-10-31T11:05:30;17.80;77.40
20091;DHT22;10205;49.678;6.560;2023-10-31T11:07:59;17.80;77.50
20091;DHT22;10205;49.678;6.560;2023-10-31T11:10:29;17.80;77.40
20091;DHT22;10205;49.678;6.560;2023-10-31T11:12:56;17.80;77.40
20091;DHT22;10205;49.678;6.560;2023-10-31T11:15:24;17.80;77.40
20091;DHT22;10205;49.678;6.560;2023-10-31T11:17:55;17.80;77.10
20091;DHT22;10205;49.678;6.560;2023-10-31T11:20:22;17.80;77.90
20091;DHT22;10205;49.678;6.560;2023-10-31T11:22:55;17.80;77.10
20091;DHT22;10205;49.678;6.560;2023-10-31T11:25:24;17.80;77.00
20091;DHT22;10205;49.678;6.560;2023-10-31T11:27:53;17.80;77.10
20091;DHT22;10205;49.678;6.560;2023-10-31T11:30:21;17.80;77.30
20091;DHT22;10205;49.678;6.560;2023-10-31T11:32:53;17.90;77.60
20091;DHT22;10205;49.678;6.560;2023-10-31T11:35:22;17.80;77.50
20091;DHT22;10205;49.678;6.560;2023-10-31T11:37:52;17.90;77.40
20091;DHT22;10205;49.678;6.560;2023-10-31T11:40:27;17.90;77.20
20091;DHT22;10205;49.678;6.560;2023-10-31T11:42:57;17.90;77.30
20091;DHT22;10205;49.678;6.560;2023-10-31T11:45:26;17.90;77.30
20091;DHT22;10205;49.678;6.560;2023-10-31T11:47:55;17.90;77.40
20091;DHT22;10205;49.678;6.560;2023-10-31T11:50:23;17.90;77.30
20091;DHT22;10205;49.678;6.560;2023-10-31T11:53:05;18.00;77.20
20091;DHT22;10205;49.678;6.560;2023-10-31T11:55:35;18.00;77.10
20091;DHT22;10205;49.678;6.560;2023-10-31T11:58:17;18.00;77.30
20091;DHT22;10205;49.678;6.560;2023-10-31T12:00:46;18.00;76.90
20091;DHT22;10205;49.678;6.560;2023-10-31T12:03:16;18.00;77.20
20091;DHT22;10205;49.678;6.560;2023-10-31T12:05:54;18.00;77.10
20091;DHT22;10205;49.678;6.560;2023-10-31T12:08:26;18.00;77.10
20091;DHT22;10205;49.678;6.560;2023-10-31T12:11:02;18.00;76.90
20091;DHT22;10205;49.678;6.560;2023-10-31T12:13:32;18.00;77.00
20091;DHT22;10205;49.678;6.560;2023-10-31T12:16:00;18.00;76.90
20091;DHT22;10205;49.678;6.560;2023-10-31T12:18:28;18.00;77.00
20091;DHT22;10205;49.678;6.560;2023-10-31T12:20:55;18.10;76.90
20091;DHT22;10205;49.678;6.560;2023-10-31T12:23:23;18.10;76.90
20091;DHT22;10205;49.678;6.560;2023-10-31T12:25:50;18.10;76.80
20091;DHT22;10205;49.678;6.560;2023-10-31T12:28:18;18.10;76.70
20091;DHT22;10205;49.678;6.560;2023-10-31T12:30:48;18.10;76.80
20091;DHT22;10205;49.678;6.560;2023-10-31T12:33:17;18.10;76.80
20091;DHT22;10205;49.678;6.560;2023-10-31T12:35:45;18.10;76.90
20091;DHT22;10205;49.678;6.560;2023-10-31T12:38:14;18.10;77.00
20091;DHT22;10205;49.678;6.560;2023-10-31T12:40:43;18.10;77.10
20091;DHT22;10205;49.678;6.560;2023-10-31T12:43:12;18.10;77.10
20091;DHT22;10205;49.678;6.560;2023-10-31T12:45:39;18.20;77.10
20091;DHT22;10205;49.678;6.560;2023-10-31T12:48:09;18.20;77.00
20091;DHT22;10205;49.678;6.560;2023-10-31T12:50:38;18.10;76.40
20091;DHT22;10205;49.678;6.560;2023-10-31T12:53:06;18.20;76.80
20091;DHT22;10205;49.678;6.560;2023-10-31T12:55:38;18.20;76.80
20091;DHT22;10205;49.678;6.560;2023-10-31T12:58:07;18.20;76.60
20091;DHT22;10205;49.678;6.560;2023-10-31T13:00:36;18.20;77.40
20091;DHT22;10205;49.678;6.560;2023-10-31T13:03:05;18.20;76.50
20091;DHT22;10205;49.678;6.560;2023-10-31T13:05:35;18.20;76.50
20091;DHT22;10205;49.678;6.560;2023-10-31T13:08:04;18.20;76.50
20091;DHT22;10205;49.678;6.560;2023-10-31T13:10:40;18.20;76.40
20091;DHT22;10205;49.678;6.560;2023-10-31T13:13:08;18.30;76.50
20091;DHT22;10205;49.678;6.560;2023-10-31T13:15:37;18.30;76.50
20091;DHT22;10205;49.678;6.560;2023-10-31T13:18:05;18.30;76.40
20091;DHT22;10205;49.678;6.560;2023-10-31T13:20:34;18.30;76.30
20091;DHT22;10205;49.678;6.560;2023-10-31T13:23:01;18.30;76.20
20091;DHT22;10205;49.678;6.560;2023-10-31T13:25:29;18.30;76.10
20091;DHT22;10205;49.678;6.560;2023-10-31T13:27:57;18.30;76.20
20091;DHT22;10205;49.678;6.560;2023-10-31T13:30:24;18.30;76.10
20091;DHT22;10205;49.678;6.560;2023-10-31T13:32:51;18.30;76.10
20091;DHT22;10205;49.678;6.560;2023-10-31T13:35:18;18.30;76.00
20091;DHT22;10205;49.678;6.560;2023-10-31T13:37:47;18.30;75.90
20091;DHT22;10205;49.678;6.560;2023-10-31T13:40:14;18.30;76.00
20091;DHT22;10205;49.678;6.560;2023-10-31T13:42:41;18.40;76.20
20091;DHT22;10205;49.678;6.560;2023-10-31T13:45:09;18.40;76.10
20091;DHT22;10205;49.678;6.560;2023-10-31T13:47:36;18.30;76.00
20091;DHT22;10205;49.678;6.560;2023-10-31T13:50:06;18.40;76.20
20091;DHT22;10205;49.678;6.560;2023-10-31T13:52:34;18.40;76.10
20091;DHT22;10205;49.678;6.560;2023-10-31T13:55:03;18.40;76.20
20091;DHT22;10205;49.678;6.560;2023-10-31T13:57:30;18.40;76.20
20091;DHT22;10205;49.678;6.560;2023-10-31T13:59:57;18.40;76.20
20091;DHT22;10205;49.678;6.560;2023-10-31T14:02:26;18.40;76.10
20091;DHT22;10205;49.678;6.560;2023-10-31T14:04:54;18.40;75.90
20091;DHT22;10205;49.678;6.560;2023-10-31T14:07:22;18.40;76.00
20091;DHT22;10205;49.678;6.560;2023-10-31T14:09:50;18.40;76.00
20091;DHT22;10205;49.678;6.560;2023-10-31T14:12:20;18.40;75.80
20091;DHT22;10205;49.678;6.560;2023-10-31T14:14:47;18.50;75.90
20091;DHT22;10205;49.678;6.560;2023-10-31T14:17:15;18.50;75.90
20091;DHT22;10205;49.678;6.560;2023-10-31T14:19:42;18.50;75.80
20091;DHT22;10205;49.678;6.560;2023-10-31T14:22:11;18.50;75.70
20091;DHT22;10205;49.678;6.560;2023-10-31T14:24:39;18.50;75.80
20091;DHT22;10205;49.678;6.560;2023-10-31T14:27:07;18.50;75.80
20091;DHT22;10205;49.678;6.560;2023-10-31T14:29:35;18.50;75.70
20091;DHT22;10205;49.678;6.560;2023-10-31T14:32:06;18.50;75.70
20091;DHT22;10205;49.678;6.560;2023-10-31T14:34:34;18.50;75.40
20091;DHT22;10205;49.678;6.560;2023-10-31T14:37:01;18.50;75.60
20091;DHT22;10205;49.678;6.560;2023-10-31T14:39:28;18.50;75.70
20091;DHT22;10205;49.678;6.560;2023-10-31T14:41:55;18.50;75.70
20091;DHT22;10205;49.678;6.560;2023-10-31T14:44:24;18.50;75.60
20091;DHT22;10205;49.678;6.560;2023-10-31T14:46:52;18.50;75.50
20091;DHT22;10205;49.678;6.560;2023-10-31T14:49:20;18.50;75.60
20091;DHT22;10205;49.678;6.560;2023-10-31T14:51:47;18.50;75.80
20091;DHT22;10205;49.678;6.560;2023-10-31T14:54:15;18.50;75.60
20091;DHT22;10205;49.678;6.560;2023-10-31T14:56:42;18.50;75.70
20091;DHT22;10205;49.678;6.560;2023-10-31T14:59:09;18.50;75.50
20091;DHT22;10205;49.678;6.560;2023-10-31T15:01:37;18.50;75.40
20091;DHT22;10205;49.678;6.560;2023-10-31T15:04:05;18.50;75.40
20091;DHT22;10205;49.678;6.560;2023-10-31T15:06:33;18.50;75.30
20091;DHT22;10205;49.678;6.560;2023-10-31T15:09:00;18.40;75.30
20091;DHT22;10205;49.678;6.560;2023-10-31T15:11:27;18.50;75.40
20091;DHT22;10205;49.678;6.560;2023-10-31T15:13:54;18.40;75.40
20091;DHT22;10205;49.678;6.560;2023-10-31T15:16:22;18.40;75.50
20091;DHT22;10205;49.678;6.560;2023-10-31T15:18:49;18.40;75.50
20091;DHT22;10205;49.678;6.560;2023-10-31T15:21:17;18.40;75.40
20091;DHT22;10205;49.678;6.560;2023-10-31T15:23:45;18.40;75.40
20091;DHT22;10205;49.678;6.560;2023-10-31T15:26:12;18.40;75.40
20091;DHT22;10205;49.678;6.560;2023-10-31T15:28:40;18.40;75.40
20091;DHT22;10205;49.678;6.560;2023-10-31T15:31:07;18.30;75.50
20091;DHT22;10205;49.678;6.560;2023-10-31T15:33:35;18.40;75.50
20091;DHT22;10205;49.678;6.560;2023-10-31T15:36:02;18.40;75.60